sensor_id;sensor_type;location;lat;lon;timestamp;pressure;altitude;pressure_sealevel;temperature;humidity
18533;BME280;9396;51.510;11.934;2023-09-19T00:00:06;99628.47;;;18.90;100.00
18533;BME280;9396;51.510;11.934;2023-09-19T00:02:38;99643.66;;;18.84;100.00
18533;BME280;9396;51.510;11.934;2023-09-19T00:05:05;99635.72;;;18.89;100.00
18533;BME280;9396;51.510;11.934;2023-09-19T00:07:33;99646.50;;;18.89;100.00
18533;BME280;9396;51.510;11.934;2023-09-19T00:10:02;99639.03;;;18.91;100.00
18533;BME280;9396;51.510;11.934;2023-09-19T00:12:30;99645.84;;;18.94;100.00
18533;BME280;9396;51.510;11.934;2023-09-19T00:14:58;99643.81;;;18.89;100.00
18533;BME280;9396;51.510;11.934;2023-09-19T00:17:26;99638.41;;;18.89;100.00
18533;BME280;9396;51.510;11.934;2023-09-19T00:19:55;99640.88;;;18.91;100.00
18533;BME280;9396;51.510;11.934;2023-09-19T00:22:22;99652.34;;;18.86;100.00
18533;BME280;9396;51.510;11.934;2023-09-19T00:24:51;99646.97;;;18.86;100.00
18533;BME280;9396;51.510;11.934;2023-09-19T00:27:18;99644.56;;;18.78;100.00
18533;BME280;9396;51.510;11.934;2023-09-19T00:29:45;99654.00;;;18.69;100.00
18533;BME280;9396;51.510;11.934;2023-09-19T00:32:13;99648.59;;;18.69;100.00
18533;BME280;9396;51.510;11.934;2023-09-19T00:34:39;99642.78;;;18.72;100.00
18533;BME280;9396;51.510;11.934;2023-09-19T00:37:07;99636.94;;;18.75;100.00
18533;BME280;9396;51.510;11.934;2023-09-19T00:39:36;99627.78;;;18.76;100.00
18533;BME280;9396;51.510;11.934;2023-09-19T00:42:03;99634.47;;;18.74;100.00
18533;BME280;9396;51.510;11.934;2023-09-19T00:44:30;99636.56;;;18.72;100.00
18533;BME280;9396;51.510;11.934;2023-09-19T00:46:57;99632.00;;;18.72;100.00
18533;BME280;9396;51.510;11.934;2023-09-19T00:49:25;99619.41;;;18.66;100.00
18533;BME280;9396;51.510;11.934;2023-09-19T00:51:52;99624.22;;;18.64;100.00
18533;BME280;9396;51.510;11.934;2023-09-19T00:54:19;99626.66;;;18.66;100.00
18533;BME280;9396;51.510;11.934;2023-09-19T00:56:46;99625.03;;;18.65;100.00
18533;BME280;9396;51.510;11.934;2023-09-19T00:59:14;99621.38;;;18.59;100.00
18533;BME280;9396;51.510;11.934;2023-09-19T01:01:41;99630.06;;;18.61;100.00
18533;BME280;9396;51.510;11.934;2023-09-19T01:04:08;99631.78;;;18.56;100.00
18533;BME280;9396;51.510;11.934;2023-09-19T01:06:36;99630.13;;;18.55;100.00
18533;BME280;9396;51.510;11.934;2023-09-19T01:09:05;99643.81;;;18.53;100.00
18533;BME280;9396;51.510;11.934;2023-09-19T01:11:35;99637.66;;;18.46;100.00
18533;BME280;9396;51.510;11.934;2023-09-19T01:14:13;99644.19;;;18.32;100.00
18533;BME280;9396;51.510;11.934;2023-09-19T01:16:47;99642.25;;;18.39;100.00
18533;BME280;9396;51.510;11.934;2023-09-19T01:19:53;99650.72;;;18.49;100.00
18533;BME280;9396;51.510;11.934;2023-09-19T01:22:33;99649.88;;;18.49;100.00
18533;BME280;9396;51.510;11.934;2023-09-19T01:28:11;99641.78;;;18.49;100.00
18533;BME280;9396;51.510;11.934;2023-09-19T01:30:44;99655.25;;;18.49;100.00
18533;BME280;9396;51.510;11.934;2023-09-19T01:33:10;99651.75;;;18.48;100.00
18533;BME280;9396;51.510;11.934;2023-09-19T01:35:37;99653.59;;;18.48;100.00
18533;BME280;9396;51.510;11.934;2023-09-19T01:38:04;99655.63;;;18.52;100.00
18533;BME280;9396;51.510;11.934;2023-09-19T01:40:34;99653.41;;;18.49;100.00
18533;BME280;9396;51.510;11.934;2023-09-19T01:43:09;99656.91;;;18.50;100.00
18533;BME280;9396;51.510;11.934;2023-09-19T01:45:46;99662.13;;;18.45;100.00
18533;BME280;9396;51.510;11.934;2023-09-19T01:48:20;99670.13;;;18.51;100.00
18533;BME280;9396;51.510;11.934;2023-09-19T01:50:55;99678.03;;;18.53;100.00
18533;BME280;9396;51.510;11.934;2023-09-19T01:53:30;99681.47;;;18.60;100.00
18533;BME280;9396;51.510;11.934;2023-09-19T01:56:00;99677.72;;;18.61;100.00
18533;BME280;9396;51.510;11.934;2023-09-19T01:58:33;99678.16;;;18.58;100.00
18533;BME280;9396;51.510;11.934;2023-09-19T02:01:03;99689.78;;;18.58;100.00
18533;BME280;9396;51.510;11.934;2023-09-19T02:03:31;99683.94;;;18.61;100.00
18533;BME280;9396;51.510;11.934;2023-09-19T02:05:59;99698.06;;;18.57;100.00
18533;BME280;9396;51.510;11.934;2023-09-19T02:08:26;99694.94;;;18.60;100.00
18533;BME280;9396;51.510;11.934;2023-09-19T02:10:54;99705.50;;;18.61;100.00
18533;BME280;9396;51.510;11.934;2023-09-19T02:13:22;99707.34;;;18.61;100.00
18533;BME280;9396;51.510;11.934;2023-09-19T02:15:50;99708.63;;;18.58;100.00
18533;BME280;9396;51.510;11.934;2023-09-19T02:18:18;99707.81;;;18.58;100.00
18533;BME280;9396;51.510;11.934;2023-09-19T02:20:45;99699.56;;;18.53;100.00
18533;BME280;9396;51.510;11.934;2023-09-19T02:23:13;99706.59;;;18.54;100.00
18533;BME280;9396;51.510;11.934;2023-09-19T02:25:41;99716.38;;;18.48;100.00
18533;BME280;9396;51.510;11.934;2023-09-19T02:28:09;99714.75;;;18.47;100.00
18533;BME280;9396;51.510;11.934;2023-09-19T02:30:36;99718.50;;;18.40;100.00
18533;BME280;9396;51.510;11.934;2023-09-19T02:33:03;99718.97;;;18.37;100.00
18533;BME280;9396;51.510;11.934;2023-09-19T02:35:32;99719.38;;;18.34;100.00
18533;BME280;9396;51.510;11.934;2023-09-19T02:38:01;99721.09;;;18.28;100.00
18533;BME280;9396;51.510;11.934;2023-09-19T02:40:31;99720.69;;;18.25;100.00
18533;BME280;9396;51.510;11.934;2023-09-19T02:43:01;99724.38;;;18.30;100.00
18533;BME280;9396;51.510;11.934;2023-09-19T02:45:28;99716.75;;;18.27;100.00
18533;BME280;9396;51.510;11.934;2023-09-19T02:47:55;99726.91;;;18.25;100.00
18533;BME280;9396;51.510;11.934;2023-09-19T02:50:22;99731.84;;;18.28;100.00
18533;BME280;9396;51.510;11.934;2023-09-19T02:52:50;99732.47;;;18.30;100.00
18533;BME280;9396;51.510;11.934;2023-09-19T02:55:18;99731.84;;;18.28;100.00
18533;BME280;9396;51.510;11.934;2023-09-19T02:57:46;99737.44;;;18.33;100.00
18533;BME280;9396;51.510;11.934;2023-09-19T03:00:13;99734.53;;;18.28;100.00
18533;BME280;9396;51.510;11.934;2023-09-19T03:02:40;99742.63;;;18.28;100.00
18533;BME280;9396;51.510;11.934;2023-09-19T03:05:07;99744.44;;;18.34;100.00
18533;BME280;9396;51.510;11.934;2023-09-19T03:07:36;99753.41;;;18.28;100.00
18533;BME280;9396;51.510;11.934;2023-09-19T03:10:06;99747.59;;;18.31;100.00
18533;BME280;9396;51.510;11.934;2023-09-19T03:12:33;99749.69;;;18.29;100.00
18533;BME280;9396;51.510;11.934;2023-09-19T03:15:00;99753.41;;;18.28;100.00
18533;BME280;9396;51.510;11.934;2023-09-19T03:17:27;99752.38;;;18.29;100.00
18533;BME280;9396;51.510;11.934;2023-09-19T03:19:53;99754.00;;;18.30;100.00
18533;BME280;9396;51.510;11.934;2023-09-19T03:22:20;99761.06;;;18.31;100.00
18533;BME280;9396;51.510;11.934;2023-09-19T03:24:47;99760.59;;;18.34;100.00
18533;BME280;9396;51.510;11.934;2023-09-19T03:27:15;99758.59;;;18.30;100.00
18533;BME280;9396;51.510;11.934;2023-09-19T03:29:42;99750.91;;;18.33;100.00
18533;BME280;9396;51.510;11.934;2023-09-19T03:32:09;99762.13;;;18.24;100.00
18533;BME280;9396;51.510;11.934;2023-09-19T03:34:37;99762.91;;;18.06;100.00
18533;BME280;9396;51.510;11.934;2023-09-19T03:37:08;99771.75;;;18.13;100.00
18533;BME280;9396;51.510;11.934;2023-09-19T03:39:34;99766.81;;;18.10;100.00
18533;BME280;9396;51.510;11.934;2023-09-19T03:42:02;99769.91;;;18.07;100.00
18533;BME280;9396;51.510;11.934;2023-09-19T03:44:30;99776.19;;;18.01;100.00
18533;BME280;9396;51.510;11.934;2023-09-19T03:46:57;99773.75;;;17.93;100.00
18533;BME280;9396;51.510;11.934;2023-09-19T03:49:23;99775.41;;;17.94;100.00
18533;BME280;9396;51.510;11.934;2023-09-19T03:51:50;99776.88;;;17.90;100.00
18533;BME280;9396;51.510;11.934;2023-09-19T03:54:17;99787.97;;;18.00;100.00
18533;BME280;9396;51.510;11.934;2023-09-19T03:56:45;99786.56;;;17.97;100.00
18533;BME280;9396;51.510;11.934;2023-09-19T03:59:11;99787.03;;;17.88;100.00
18533;BME280;9396;51.510;11.934;2023-09-19T04:01:40;99784.38;;;17.81;100.00
18533;BME280;9396;51.510;11.934;2023-09-19T04:04:07;99774.69;;;17.74;100.00
18533;BME280;9396;51.510;11.934;2023-09-19T04:06:34;99787.31;;;17.73;100.00
18533;BME280;9396;51.510;11.934;2023-09-19T04:09:01;99791.44;;;17.69;100.00
18533;BME280;9396;51.510;11.934;2023-09-19T04:11:29;99786.94;;;17.63;100.00
18533;BME280;9396;51.510;11.934;2023-09-19T04:13:56;99787.78;;;17.57;100.00
18533;BME280;9396;51.510;11.934;2023-09-19T04:16:23;99785.09;;;17.57;100.00
18533;BME280;9396;51.510;11.934;2023-09-19T04:18:51;99789.41;;;17.65;100.00
18533;BME280;9396;51.510;11.934;2023-09-19T04:21:17;99791.66;;;17.68;100.00
18533;BME280;9396;51.510;11.934;2023-09-19T04:23:44;99785.94;;;17.58;100.00
18533;BME280;9396;51.510;11.934;2023-09-19T04:26:11;99800.44;;;17.44;100.00
18533;BME280;9396;51.510;11.934;2023-09-19T04:28:38;99805.19;;;17.48;100.00
18533;BME280;9396;51.510;11.934;2023-09-19T04:31:06;99802.69;;;17.60;100.00
18533;BME280;9396;51.510;11.934;2023-09-19T04:33:34;99804.31;;;17.61;100.00
18533;BME280;9396;51.510;11.934;2023-09-19T04:36:02;99813.00;;;17.63;100.00
18533;BME280;9396;51.510;11.934;2023-09-19T04:38:28;99820.47;;;17.67;100.00
18533;BME280;9396;51.510;11.934;2023-09-19T04:40:57;99825.44;;;17.64;100.00
18533;BME280;9396;51.510;11.934;2023-09-19T04:43:23;99828.72;;;17.66;100.00
18533;BME280;9396;51.510;11.934;2023-09-19T04:45:50;99831.66;;;17.58;100.00
18533;BME280;9396;51.510;11.934;2023-09-19T04:48:21;99836.22;;;17.57;100.00
18533;BME280;9396;51.510;11.934;2023-09-19T04:50:49;99839.50;;;17.59;100.00
18533;BME280;9396;51.510;11.934;2023-09-19T04:53:17;99841.22;;;17.41;100.00
18533;BME280;9396;51.510;11.934;2023-09-19T04:55:49;99833.81;;;17.17;100.00
18533;BME280;9396;51.510;11.934;2023-09-19T04:58:16;99842.53;;;17.12;100.00
18533;BME280;9396;51.510;11.934;2023-09-19T05:00:43;99840.03;;;17.10;100.00
18533;BME280;9396;51.510;11.934;2023-09-19T05:03:10;99841.09;;;17.03;100.00
18533;BME280;9396;51.510;11.934;2023-09-19T05:05:36;99846.84;;;17.00;100.00
18533;BME280;9396;51.510;11.934;2023-09-19T05:08:04;99843.34;;;17.06;100.00
18533;BME280;9396;51.510;11.934;2023-09-19T05:10:32;99849.75;;;17.11;100.00
18533;BME280;9396;51.510;11.934;2023-09-19T05:13:00;99860.25;;;17.20;100.00
18533;BME280;9396;51.510;11.934;2023-09-19T05:15:27;99868.56;;;17.25;100.00
18533;BME280;9396;51.510;11.934;2023-09-19T05:17:54;99869.75;;;17.29;100.00
18533;BME280;9396;51.510;11.934;2023-09-19T05:20:21;99877.22;;;17.33;100.00
18533;BME280;9396;51.510;11.934;2023-09-19T05:23:00;99884.25;;;17.28;100.00
18533;BME280;9396;51.510;11.934;2023-09-19T05:25:28;99889.22;;;17.24;100.00
18533;BME280;9396;51.510;11.934;2023-09-19T05:27:57;99891.72;;;17.12;100.00
18533;BME280;9396;51.510;11.934;2023-09-19T05:30:25;99891.72;;;17.12;100.00
18533;BME280;9396;51.510;11.934;2023-09-19T05:32:54;99871.47;;;16.90;100.00
18533;BME280;9396;51.510;11.934;2023-09-19T05:35:21;99900.41;;;16.95;100.00
18533;BME280;9396;51.510;11.934;2023-09-19T05:37:48;99890.50;;;17.08;100.00
18533;BME280;9396;51.510;11.934;2023-09-19T05:40:16;99898.75;;;17.07;100.00
18533;BME280;9396;51.510;11.934;2023-09-19T05:42:42;99904.56;;;17.10;100.00
18533;BME280;9396;51.510;11.934;2023-09-19T05:45:11;99904.94;;;17.21;100.00
18533;BME280;9396;51.510;11.934;2023-09-19T05:47:38;99914.25;;;17.18;100.00
18533;BME280;9396;51.510;11.934;2023-09-19T05:50:07;99913.63;;;17.23;100.00
18533;BME280;9396;51.510;11.934;2023-09-19T05:52:34;99907.84;;;17.26;100.00
18533;BME280;9396;51.510;11.934;2023-09-19T05:55:02;99911.34;;;17.26;100.00
18533;BME280;9396;51.510;11.934;2023-09-19T05:57:30;99917.97;;;17.17;100.00
18533;BME280;9396;51.510;11.934;2023-09-19T05:59:57;99919.66;;;17.05;100.00
18533;BME280;9396;51.510;11.934;2023-09-19T06:02:25;99916.53;;;17.08;100.00
18533;BME280;9396;51.510;11.934;2023-09-19T06:04:54;99923.75;;;17.07;100.00
18533;BME280;9396;51.510;11.934;2023-09-19T06:07:21;99927.69;;;17.11;100.00
18533;BME280;9396;51.510;11.934;2023-09-19T06:09:48;99921.28;;;17.12;100.00
18533;BME280;9396;51.510;11.934;2023-09-19T06:12:15;99930.16;;;17.20;100.00
18533;BME280;9396;51.510;11.934;2023-09-19T06:14:42;99938.44;;;17.25;100.00
18533;BME280;9396;51.510;11.934;2023-09-19T06:17:09;99934.28;;;17.29;99.67
18533;BME280;9396;51.510;11.934;2023-09-19T06:19:37;99934.53;;;17.34;99.07
18533;BME280;9396;51.510;11.934;2023-09-19T06:22:04;99938.03;;;17.47;100.00
18533;BME280;9396;51.510;11.934;2023-09-19T06:24:30;99947.94;;;17.60;99.58
18533;BME280;9396;51.510;11.934;2023-09-19T06:26:57;99938.84;;;17.67;98.77
18533;BME280;9396;51.510;11.934;2023-09-19T06:29:27;99936.09;;;17.80;99.15
18533;BME280;9396;51.510;11.934;2023-09-19T06:31:53;99941.47;;;17.87;98.91
18533;BME280;9396;51.510;11.934;2023-09-19T06:34:20;99950.34;;;17.87;96.66
18533;BME280;9396;51.510;11.934;2023-09-19T06:36:49;99944.09;;;18.00;97.24
18533;BME280;9396;51.510;11.934;2023-09-19T06:39:17;99948.81;;;18.11;95.06
18533;BME280;9396;51.510;11.934;2023-09-19T06:41:44;99948.59;;;18.12;94.23
18533;BME280;9396;51.510;11.934;2023-09-19T06:44:11;99950.06;;;18.15;94.37
18533;BME280;9396;51.510;11.934;2023-09-19T06:46:38;99953.97;;;18.19;94.63
18533;BME280;9396;51.510;11.934;2023-09-19T06:49:06;99956.38;;;18.40;94.13
18533;BME280;9396;51.510;11.934;2023-09-19T06:51:33;99964.44;;;18.47;93.40
18533;BME280;9396;51.510;11.934;2023-09-19T06:54:03;99966.13;;;18.41;91.26
18533;BME280;9396;51.510;11.934;2023-09-19T06:56:30;99970.22;;;18.50;91.67
18533;BME280;9396;51.510;11.934;2023-09-19T06:58:58;99977.25;;;18.51;92.11
18533;BME280;9396;51.510;11.934;2023-09-19T07:01:24;99985.75;;;18.55;90.30
18533;BME280;9396;51.510;11.934;2023-09-19T07:03:51;99999.00;;;18.56;90.94
18533;BME280;9396;51.510;11.934;2023-09-19T07:06:18;100006.25;;;18.56;91.38
18533;BME280;9396;51.510;11.934;2023-09-19T07:08:45;100005.59;;;18.60;91.82
18533;BME280;9396;51.510;11.934;2023-09-19T07:11:13;100010.81;;;18.55;91.52
18533;BME280;9396;51.510;11.934;2023-09-19T07:13:41;100013.31;;;18.37;90.54
18533;BME280;9396;51.510;11.934;2023-09-19T07:16:07;100023.34;;;18.24;91.41
18533;BME280;9396;51.510;11.934;2023-09-19T07:18:35;100022.69;;;18.28;93.18
18533;BME280;9396;51.510;11.934;2023-09-19T07:21:02;100032.72;;;18.08;92.57
18533;BME280;9396;51.510;11.934;2023-09-19T07:23:30;100037.25;;;18.07;92.71
18533;BME280;9396;51.510;11.934;2023-09-19T07:26:00;100042.25;;;18.04;93.39
18533;BME280;9396;51.510;11.934;2023-09-19T07:28:28;100042.84;;;18.06;93.34
18533;BME280;9396;51.510;11.934;2023-09-19T07:30:55;100049.25;;;18.05;92.58
18533;BME280;9396;51.510;11.934;2023-09-19T07:33:21;100049.66;;;18.08;93.12
18533;BME280;9396;51.510;11.934;2023-09-19T07:35:50;100052.19;;;18.10;91.15
18533;BME280;9396;51.510;11.934;2023-09-19T07:38:17;100055.44;;;18.25;91.08
18533;BME280;9396;51.510;11.934;2023-09-19T07:40:44;100053.78;;;18.24;90.96
18533;BME280;9396;51.510;11.934;2023-09-19T07:43:10;100060.22;;;18.16;91.62
18533;BME280;9396;51.510;11.934;2023-09-19T07:45:38;100067.06;;;18.19;91.71
18533;BME280;9396;51.510;11.934;2023-09-19T07:48:05;100069.72;;;18.26;91.98
18533;BME280;9396;51.510;11.934;2023-09-19T07:50:40;100072.41;;;18.32;93.01
18533;BME280;9396;51.510;11.934;2023-09-19T07:53:08;100063.69;;;18.37;91.81
18533;BME280;9396;51.510;11.934;2023-09-19T07:55:37;100068.25;;;18.49;92.25
18533;BME280;9396;51.510;11.934;2023-09-19T07:58:05;100076.56;;;18.41;91.01
18533;BME280;9396;51.510;11.934;2023-09-19T08:00:32;100066.38;;;18.30;90.00
18533;BME280;9396;51.510;11.934;2023-09-19T08:03:02;100073.44;;;18.31;90.18
18533;BME280;9396;51.510;11.934;2023-09-19T08:05:29;100073.84;;;18.35;91.69
18533;BME280;9396;51.510;11.934;2023-09-19T08:07:56;100076.34;;;18.30;90.39
18533;BME280;9396;51.510;11.934;2023-09-19T08:10:24;100083.97;;;18.39;90.17
18533;BME280;9396;51.510;11.934;2023-09-19T08:12:53;100085.22;;;18.50;90.91
18533;BME280;9396;51.510;11.934;2023-09-19T08:15:23;100090.81;;;18.48;89.97
18533;BME280;9396;51.510;11.934;2023-09-19T08:17:50;100083.13;;;18.52;88.53
18533;BME280;9396;51.510;11.934;2023-09-19T08:20:18;100084.41;;;18.49;88.65
18533;BME280;9396;51.510;11.934;2023-09-19T08:22:47;100069.19;;;18.74;88.55
18533;BME280;9396;51.510;11.934;2023-09-19T08:25:15;100058.88;;;18.96;88.85
18533;BME280;9396;51.510;11.934;2023-09-19T08:27:44;100055.66;;;19.18;87.60
18533;BME280;9396;51.510;11.934;2023-09-19T08:30:13;100074.88;;;19.29;85.96
18533;BME280;9396;51.510;11.934;2023-09-19T08:32:41;100071.91;;;19.43;84.78
18533;BME280;9396;51.510;11.934;2023-09-19T08:35:08;100078.22;;;19.55;84.38
18533;BME280;9396;51.510;11.934;2023-09-19T08:37:37;100074.09;;;19.53;84.12
18533;BME280;9396;51.510;11.934;2023-09-19T08:40:04;100081.47;;;19.64;82.43
18533;BME280;9396;51.510;11.934;2023-09-19T08:42:47;100084.94;;;19.71;90.10
18533;BME280;9396;51.510;11.934;2023-09-19T08:45:13;100086.81;;;19.95;93.49
18533;BME280;9396;51.510;11.934;2023-09-19T08:47:46;100087.84;;;19.94;89.25
18533;BME280;9396;51.510;11.934;2023-09-19T08:50:19;100089.13;;;19.91;88.56
18533;BME280;9396;51.510;11.934;2023-09-19T08:52:50;100081.44;;;19.95;89.20
18533;BME280;9396;51.510;11.934;2023-09-19T08:55:19;100087.84;;;19.94;88.72
18533;BME280;9396;51.510;11.934;2023-09-19T08:57:49;100075.41;;;19.93;88.25
18533;BME280;9396;51.510;11.934;2023-09-19T09:00:18;100087.44;;;19.97;85.84
18533;BME280;9396;51.510;11.934;2023-09-19T09:02:49;100091.38;;;19.94;85.30
18533;BME280;9396;51.510;11.934;2023-09-19T09:05:16;100083.19;;;19.83;83.38
18533;BME280;9396;51.510;11.934;2023-09-19T09:07:49;100087.31;;;19.85;84.77
18533;BME280;9396;51.510;11.934;2023-09-19T09:10:17;100088.09;;;19.92;86.16
18533;BME280;9396;51.510;11.934;2023-09-19T09:12:48;100098.38;;;20.02;85.30
18533;BME280;9396;51.510;11.934;2023-09-19T09:15:15;100090.28;;;20.02;84.53
18533;BME280;9396;51.510;11.934;2023-09-19T09:17:46;100091.78;;;19.98;84.15
18533;BME280;9396;51.510;11.934;2023-09-19T09:20:13;100092.06;;;20.08;84.76
18533;BME280;9396;51.510;11.934;2023-09-19T09:22:51;100108.75;;;20.05;81.99
18533;BME280;9396;51.510;11.934;2023-09-19T09:25:20;100102.94;;;20.01;81.31
18533;BME280;9396;51.510;11.934;2023-09-19T09:27:58;100089.44;;;20.01;81.19
18533;BME280;9396;51.510;11.934;2023-09-19T09:30:33;100096.53;;;20.02;81.74
18533;BME280;9396;51.510;11.934;2023-09-19T09:33:08;100096.22;;;20.10;83.85
18533;BME280;9396;51.510;11.934;2023-09-19T09:35:36;100093.00;;;20.02;80.96
18533;BME280;9396;51.510;11.934;2023-09-19T09:38:05;100091.66;;;20.11;82.53
18533;BME280;9396;51.510;11.934;2023-09-19T09:40:46;100101.41;;;20.12;79.95
18533;BME280;9396;51.510;11.934;2023-09-19T09:43:32;100106.81;;;20.12;77.63
18533;BME280;9396;51.510;11.934;2023-09-19T09:46:20;100111.16;;;20.13;79.80
18533;BME280;9396;51.510;11.934;2023-09-19T09:49:07;100114.59;;;20.02;79.47
18533;BME280;9396;51.510;11.934;2023-09-19T09:51:46;100121.59;;;20.09;81.08
18533;BME280;9396;51.510;11.934;2023-09-19T09:54:25;100120.97;;;20.07;81.35
18533;BME280;9396;51.510;11.934;2023-09-19T09:56:54;100126.88;;;19.98;79.16
18533;BME280;9396;51.510;11.934;2023-09-19T09:59:48;100131.63;;;20.02;79.37
18533;BME280;9396;51.510;11.934;2023-09-19T10:02:17;100127.09;;;19.96;77.99
18533;BME280;9396;51.510;11.934;2023-09-19T10:04:50;100129.56;;;19.98;78.46
18533;BME280;9396;51.510;11.934;2023-09-19T10:07:35;100136.97;;;20.09;80.36
18533;BME280;9396;51.510;11.934;2023-09-19T10:10:05;100133.66;;;20.07;80.23
18533;BME280;9396;51.510;11.934;2023-09-19T10:12:47;100125.72;;;20.12;81.75
18533;BME280;9396;51.510;11.934;2023-09-19T10:15:16;100120.16;;;20.07;79.67
18533;BME280;9396;51.510;11.934;2023-09-19T10:17:46;100118.66;;;20.11;79.24
18533;BME280;9396;51.510;11.934;2023-09-19T10:20:14;100120.06;;;20.13;79.77
18533;BME280;9396;51.510;11.934;2023-09-19T10:22:59;100120.59;;;20.04;76.55
18533;BME280;9396;51.510;11.934;2023-09-19T10:25:28;100119.03;;;20.14;79.10
18533;BME280;9396;51.510;11.934;2023-09-19T10:27:56;100121.53;;;20.16;78.94
18533;BME280;9396;51.510;11.934;2023-09-19T10:30:25;100119.00;;;20.21;80.29
18533;BME280;9396;51.510;11.934;2023-09-19T10:32:59;100126.00;;;20.29;79.46
18533;BME280;9396;51.510;11.934;2023-09-19T10:35:27;100109.47;;;20.37;85.27
18533;BME280;9396;51.510;11.934;2023-09-19T10:37:58;100107.16;;;20.40;80.64
18533;BME280;9396;51.510;11.934;2023-09-19T10:40:28;100107.84;;;20.36;77.88
18533;BME280;9396;51.510;11.934;2023-09-19T10:43:01;100099.66;;;20.42;78.66
18533;BME280;9396;51.510;11.934;2023-09-19T10:45:31;100118.28;;;20.50;80.51
18533;BME280;9396;51.510;11.934;2023-09-19T10:47:58;100120.53;;;20.35;77.14
18533;BME280;9396;51.510;11.934;2023-09-19T10:50:26;100121.13;;;20.37;77.16
18533;BME280;9396;51.510;11.934;2023-09-19T10:52:59;100115.50;;;20.39;76.84
18533;BME280;9396;51.510;11.934;2023-09-19T10:55:32;100120.38;;;20.48;82.82
18533;BME280;9396;51.510;11.934;2023-09-19T10:58:01;100128.50;;;20.48;79.56
18533;BME280;9396;51.510;11.934;2023-09-19T11:00:30;100121.66;;;20.46;77.83
18533;BME280;9396;51.510;11.934;2023-09-19T11:03:19;100125.91;;;20.35;76.58
18533;BME280;9396;51.510;11.934;2023-09-19T11:06:06;100131.28;;;20.42;75.98
18533;BME280;9396;51.510;11.934;2023-09-19T11:08:56;100130.91;;;20.38;76.08
18533;BME280;9396;51.510;11.934;2023-09-19T11:11:47;100119.63;;;20.41;75.75
18533;BME280;9396;51.510;11.934;2023-09-19T11:14:37;100124.13;;;20.47;77.48
18533;BME280;9396;51.510;11.934;2023-09-19T11:20:31;100127.50;;;20.43;77.65
18533;BME280;9396;51.510;11.934;2023-09-19T11:23:21;100132.03;;;20.49;79.53
18533;BME280;9396;51.510;11.934;2023-09-19T11:25:52;100120.84;;;20.45;77.84
18533;BME280;9396;51.510;11.934;2023-09-19T11:28:32;100128.72;;;20.47;78.72
18533;BME280;9396;51.510;11.934;2023-09-19T11:40:28;100118.16;;;20.45;80.49
18533;BME280;9396;51.510;11.934;2023-09-19T11:42:56;100112.13;;;20.43;78.55
18533;BME280;9396;51.510;11.934;2023-09-19T11:48:28;100127.00;;;20.52;79.11
18533;BME280;9396;51.510;11.934;2023-09-19T11:50:56;100112.50;;;20.47;78.44
18533;BME280;9396;51.510;11.934;2023-09-19T11:53:31;100107.47;;;20.50;73.34
18533;BME280;9396;51.510;11.934;2023-09-19T11:56:01;100115.72;;;20.55;80.84
18533;BME280;9396;51.510;11.934;2023-09-19T11:58:33;100113.88;;;20.56;76.23
18533;BME280;9396;51.510;11.934;2023-09-19T12:01:00;100114.06;;;20.54;75.59
18533;BME280;9396;51.510;11.934;2023-09-19T12:03:36;100113.78;;;20.62;79.00
18533;BME280;9396;51.510;11.934;2023-09-19T12:06:10;100111.53;;;20.59;77.83
18533;BME280;9396;51.510;11.934;2023-09-19T12:08:40;100106.56;;;20.56;75.42
18533;BME280;9396;51.510;11.934;2023-09-19T12:11:12;100112.44;;;20.53;78.22
18533;BME280;9396;51.510;11.934;2023-09-19T12:13:41;100117.38;;;20.56;78.07
18533;BME280;9396;51.510;11.934;2023-09-19T12:16:12;100113.91;;;20.67;82.16
18533;BME280;9396;51.510;11.934;2023-09-19T12:18:42;100107.69;;;20.67;80.30
18533;BME280;9396;51.510;11.934;2023-09-19T12:21:27;100104.19;;;20.66;74.90
18533;BME280;9396;51.510;11.934;2023-09-19T12:24:14;100116.84;;;20.66;75.64
18533;BME280;9396;51.510;11.934;2023-09-19T12:26:45;100096.06;;;20.66;72.24
18533;BME280;9396;51.510;11.934;2023-09-19T12:29:14;100109.25;;;20.74;73.63
18533;BME280;9396;51.510;11.934;2023-09-19T12:31:53;100099.28;;;20.75;75.76
18533;BME280;9396;51.510;11.934;2023-09-19T12:34:28;100101.53;;;20.78;77.87
18533;BME280;9396;51.510;11.934;2023-09-19T12:37:08;100097.91;;;20.84;81.83
18533;BME280;9396;51.510;11.934;2023-09-19T12:39:43;100099.19;;;20.81;79.05
18533;BME280;9396;51.510;11.934;2023-09-19T12:42:15;100102.59;;;20.77;77.02
18533;BME280;9396;51.510;11.934;2023-09-19T12:44:42;100094.00;;;20.80;75.71
18533;BME280;9396;51.510;11.934;2023-09-19T12:47:13;100091.44;;;20.85;80.42
18533;BME280;9396;51.510;11.934;2023-09-19T12:50:11;100095.44;;;20.82;76.49
18533;BME280;9396;51.510;11.934;2023-09-19T12:52:44;100089.56;;;20.85;78.01
18533;BME280;9396;51.510;11.934;2023-09-19T12:55:23;100089.56;;;20.85;78.73
18533;BME280;9396;51.510;11.934;2023-09-19T12:58:02;100089.56;;;20.85;76.78
18533;BME280;9396;51.510;11.934;2023-09-19T13:00:35;100088.38;;;20.81;74.64
18533;BME280;9396;51.510;11.934;2023-09-19T13:03:16;100088.84;;;20.78;74.32
18533;BME280;9396;51.510;11.934;2023-09-19T13:05:54;100083.78;;;20.82;77.04
18533;BME280;9396;51.510;11.934;2023-09-19T13:08:24;100092.75;;;20.82;72.65
18533;BME280;9396;51.510;11.934;2023-09-19T13:11:03;100092.50;;;20.84;75.53
18533;BME280;9396;51.510;11.934;2023-09-19T13:13:32;100086.25;;;20.83;76.90
18533;BME280;9396;51.510;11.934;2023-09-19T13:16:00;100096.19;;;20.89;78.06
18533;BME280;9396;51.510;11.934;2023-09-19T13:18:28;100084.53;;;20.89;72.61
18533;BME280;9396;51.510;11.934;2023-09-19T13:21:14;100086.63;;;20.87;73.70
18533;BME280;9396;51.510;11.934;2023-09-19T13:23:52;100085.81;;;20.86;78.33